Detroit (DTW/KDTW)

Information

Location
Detroit, MI
Local Time
19:24 / 7:24 pm
GMT Time
00:24 / 12:24 am
Gates
Unassigned
No FAA reported delays
METAR KDTW 222353Z 18009KT 7SM FEW025 SCT035 OVC040 16/12 A2975 RMK AO2 SLP074 T01560117 10183 20156 56004
TAF KDTW 222320Z 2300/2406 21010KT 6SM HZ SCT025 OVC035 FM230200 19008KT 4SM BR SCT015 OVC025 FM230800 21010KT 1 1/2SM BR BKN008 OVC015 PROB30 2310/2313 1/2SM -SHRA FG OVC008 FM231400 24007KT 5SM BR OVC025 FM231700 31007KT P6SM SCT040 BKN150 FM232200 01006KT 6SM HZ SCT035 BKN100 FM240100 02008KT 4SM BR SCT018 BKN035
  • No charts available